sensor_id;sensor_type;location;lat;lon;timestamp;P1;durP1;ratioP1;P2;durP2;ratioP2
74632;SDS011;63139;52.018;8.552;2023-06-04T00:00:35;4.95;;;3.45;;
74632;SDS011;63139;52.018;8.552;2023-06-04T00:03:02;5.30;;;3.53;;
74632;SDS011;63139;52.018;8.552;2023-06-04T00:05:31;4.95;;;3.22;;
74632;SDS011;63139;52.018;8.552;2023-06-04T00:07:59;4.82;;;3.40;;
74632;SDS011;63139;52.018;8.552;2023-06-04T00:10:27;4.55;;;3.03;;
74632;SDS011;63139;52.018;8.552;2023-06-04T00:12:55;7.38;;;3.72;;
74632;SDS011;63139;52.018;8.552;2023-06-04T00:15:22;8.18;;;4.28;;
74632;SDS011;63139;52.018;8.552;2023-06-04T00:17:50;7.57;;;3.88;;
74632;SDS011;63139;52.018;8.552;2023-06-04T00:20:18;5.28;;;3.53;;
74632;SDS011;63139;52.018;8.552;2023-06-04T00:22:47;6.30;;;3.83;;
74632;SDS011;63139;52.018;8.552;2023-06-04T00:25:15;6.13;;;4.30;;
74632;SDS011;63139;52.018;8.552;2023-06-04T00:27:43;6.60;;;3.38;;
74632;SDS011;63139;52.018;8.552;2023-06-04T00:30:12;4.95;;;3.20;;
74632;SDS011;63139;52.018;8.552;2023-06-04T00:32:40;5.63;;;3.65;;
74632;SDS011;63139;52.018;8.552;2023-06-04T00:35:08;6.55;;;3.50;;
74632;SDS011;63139;52.018;8.552;2023-06-04T00:37:36;4.40;;;3.38;;
74632;SDS011;63139;52.018;8.552;2023-06-04T00:40:06;4.65;;;3.17;;
74632;SDS011;63139;52.018;8.552;2023-06-04T00:42:34;3.60;;;3.08;;
74632;SDS011;63139;52.018;8.552;2023-06-04T00:45:04;4.03;;;2.90;;
74632;SDS011;63139;52.018;8.552;2023-06-04T00:47:34;4.68;;;2.42;;
74632;SDS011;63139;52.018;8.552;2023-06-04T00:50:02;3.55;;;2.42;;
74632;SDS011;63139;52.018;8.552;2023-06-04T00:52:33;3.92;;;2.55;;
74632;SDS011;63139;52.018;8.552;2023-06-04T00:55:01;3.90;;;2.70;;
74632;SDS011;63139;52.018;8.552;2023-06-04T00:57:31;3.85;;;2.80;;
74632;SDS011;63139;52.018;8.552;2023-06-04T00:59:58;3.83;;;2.50;;
74632;SDS011;63139;52.018;8.552;2023-06-04T01:02:27;4.25;;;2.30;;
74632;SDS011;63139;52.018;8.552;2023-06-04T01:04:58;3.75;;;2.33;;
74632;SDS011;63139;52.018;8.552;2023-06-04T01:07:34;3.33;;;2.40;;
74632;SDS011;63139;52.018;8.552;2023-06-04T01:10:03;3.88;;;2.60;;
74632;SDS011;63139;52.018;8.552;2023-06-04T01:12:32;3.67;;;2.63;;
74632;SDS011;63139;52.018;8.552;2023-06-04T01:15:00;3.15;;;2.33;;
74632;SDS011;63139;52.018;8.552;2023-06-04T01:17:29;3.95;;;2.38;;
74632;SDS011;63139;52.018;8.552;2023-06-04T01:23:05;2.95;;;2.05;;
74632;SDS011;63139;52.018;8.552;2023-06-04T01:25:46;3.97;;;2.63;;
74632;SDS011;63139;52.018;8.552;2023-06-04T01:28:19;3.42;;;2.30;;
74632;SDS011;63139;52.018;8.552;2023-06-04T01:30:48;2.95;;;2.30;;
74632;SDS011;63139;52.018;8.552;2023-06-04T01:33:18;4.30;;;2.88;;
74632;SDS011;63139;52.018;8.552;2023-06-04T01:35:47;3.55;;;2.70;;
74632;SDS011;63139;52.018;8.552;2023-06-04T01:38:14;4.40;;;3.20;;
74632;SDS011;63139;52.018;8.552;2023-06-04T01:40:42;3.08;;;2.17;;
74632;SDS011;63139;52.018;8.552;2023-06-04T01:43:10;3.13;;;2.20;;
74632;SDS011;63139;52.018;8.552;2023-06-04T01:45:40;3.40;;;2.63;;
74632;SDS011;63139;52.018;8.552;2023-06-04T01:48:08;3.03;;;2.10;;
74632;SDS011;63139;52.018;8.552;2023-06-04T01:50:36;3.35;;;2.25;;
74632;SDS011;63139;52.018;8.552;2023-06-04T01:53:03;2.15;;;1.80;;
74632;SDS011;63139;52.018;8.552;2023-06-04T01:55:31;3.50;;;2.17;;
74632;SDS011;63139;52.018;8.552;2023-06-04T01:58:00;4.30;;;2.20;;
74632;SDS011;63139;52.018;8.552;2023-06-04T02:00:29;2.63;;;1.92;;
74632;SDS011;63139;52.018;8.552;2023-06-04T02:02:58;4.93;;;2.97;;
74632;SDS011;63139;52.018;8.552;2023-06-04T02:05:26;5.70;;;2.90;;
74632;SDS011;63139;52.018;8.552;2023-06-04T02:07:54;2.22;;;2.03;;
74632;SDS011;63139;52.018;8.552;2023-06-04T02:10:23;3.85;;;2.80;;
74632;SDS011;63139;52.018;8.552;2023-06-04T02:12:55;4.03;;;2.60;;
74632;SDS011;63139;52.018;8.552;2023-06-04T02:15:24;6.47;;;2.80;;
74632;SDS011;63139;52.018;8.552;2023-06-04T02:17:54;4.38;;;2.50;;
74632;SDS011;63139;52.018;8.552;2023-06-04T02:20:27;4.63;;;2.72;;
74632;SDS011;63139;52.018;8.552;2023-06-04T02:22:55;3.40;;;2.10;;
74632;SDS011;63139;52.018;8.552;2023-06-04T02:25:25;3.75;;;2.40;;
74632;SDS011;63139;52.018;8.552;2023-06-04T02:27:53;5.20;;;2.90;;
74632;SDS011;63139;52.018;8.552;2023-06-04T02:30:20;3.28;;;2.38;;
74632;SDS011;63139;52.018;8.552;2023-06-04T02:32:48;3.10;;;2.13;;
74632;SDS011;63139;52.018;8.552;2023-06-04T02:35:18;3.40;;;2.38;;
74632;SDS011;63139;52.018;8.552;2023-06-04T02:37:48;2.53;;;2.08;;
74632;SDS011;63139;52.018;8.552;2023-06-04T02:40:17;3.33;;;2.15;;
74632;SDS011;63139;52.018;8.552;2023-06-04T02:42:45;3.88;;;2.47;;
74632;SDS011;63139;52.018;8.552;2023-06-04T02:45:13;5.97;;;2.50;;
74632;SDS011;63139;52.018;8.552;2023-06-04T02:47:40;3.95;;;2.60;;
74632;SDS011;63139;52.018;8.552;2023-06-04T02:50:09;2.88;;;2.00;;
74632;SDS011;63139;52.018;8.552;2023-06-04T02:52:37;3.47;;;2.13;;
74632;SDS011;63139;52.018;8.552;2023-06-04T02:55:10;2.55;;;2.17;;
74632;SDS011;63139;52.018;8.552;2023-06-04T02:57:39;2.88;;;2.05;;
74632;SDS011;63139;52.018;8.552;2023-06-04T03:00:08;5.10;;;2.30;;
74632;SDS011;63139;52.018;8.552;2023-06-04T03:02:39;3.22;;;2.10;;
74632;SDS011;63139;52.018;8.552;2023-06-04T03:05:09;3.60;;;2.20;;
74632;SDS011;63139;52.018;8.552;2023-06-04T03:07:41;3.25;;;2.10;;
74632;SDS011;63139;52.018;8.552;2023-06-04T03:10:13;3.28;;;2.05;;
74632;SDS011;63139;52.018;8.552;2023-06-04T03:12:42;4.43;;;3.10;;
74632;SDS011;63139;52.018;8.552;2023-06-04T03:15:10;4.30;;;2.10;;
74632;SDS011;63139;52.018;8.552;2023-06-04T03:17:38;5.30;;;2.40;;
74632;SDS011;63139;52.018;8.552;2023-06-04T03:20:06;3.35;;;2.20;;
74632;SDS011;63139;52.018;8.552;2023-06-04T03:22:36;3.92;;;2.15;;
74632;SDS011;63139;52.018;8.552;2023-06-04T03:25:04;3.83;;;2.30;;
74632;SDS011;63139;52.018;8.552;2023-06-04T03:27:34;2.20;;;1.90;;
74632;SDS011;63139;52.018;8.552;2023-06-04T03:30:05;3.95;;;2.50;;
74632;SDS011;63139;52.018;8.552;2023-06-04T03:32:52;3.90;;;1.98;;
74632;SDS011;63139;52.018;8.552;2023-06-04T03:35:20;4.15;;;2.28;;
74632;SDS011;63139;52.018;8.552;2023-06-04T03:37:48;5.15;;;2.50;;
74632;SDS011;63139;52.018;8.552;2023-06-04T03:40:16;4.35;;;2.00;;
74632;SDS011;63139;52.018;8.552;2023-06-04T03:42:46;2.70;;;2.10;;
74632;SDS011;63139;52.018;8.552;2023-06-04T03:45:16;3.20;;;1.90;;
74632;SDS011;63139;52.018;8.552;2023-06-04T03:47:45;2.88;;;2.00;;
74632;SDS011;63139;52.018;8.552;2023-06-04T03:50:13;2.40;;;1.65;;
74632;SDS011;63139;52.018;8.552;2023-06-04T03:52:42;1.83;;;1.50;;
74632;SDS011;63139;52.018;8.552;2023-06-04T03:55:10;3.78;;;2.08;;
74632;SDS011;63139;52.018;8.552;2023-06-04T03:57:39;5.05;;;2.20;;
74632;SDS011;63139;52.018;8.552;2023-06-04T04:00:09;3.70;;;2.40;;
74632;SDS011;63139;52.018;8.552;2023-06-04T04:02:44;3.28;;;1.58;;
74632;SDS011;63139;52.018;8.552;2023-06-04T04:05:19;2.53;;;1.58;;
74632;SDS011;63139;52.018;8.552;2023-06-04T04:07:48;1.98;;;1.70;;
74632;SDS011;63139;52.018;8.552;2023-06-04T04:10:20;3.00;;;1.65;;
74632;SDS011;63139;52.018;8.552;2023-06-04T04:12:48;3.45;;;1.63;;
74632;SDS011;63139;52.018;8.552;2023-06-04T04:15:20;3.47;;;1.92;;
74632;SDS011;63139;52.018;8.552;2023-06-04T04:17:49;2.67;;;1.75;;
74632;SDS011;63139;52.018;8.552;2023-06-04T04:20:18;2.13;;;1.77;;
74632;SDS011;63139;52.018;8.552;2023-06-04T04:22:51;2.13;;;1.50;;
74632;SDS011;63139;52.018;8.552;2023-06-04T04:25:20;2.88;;;1.90;;
74632;SDS011;63139;52.018;8.552;2023-06-04T04:27:48;2.25;;;1.60;;
74632;SDS011;63139;52.018;8.552;2023-06-04T04:30:15;1.92;;;1.40;;
74632;SDS011;63139;52.018;8.552;2023-06-04T04:32:48;3.22;;;1.70;;
74632;SDS011;63139;52.018;8.552;2023-06-04T04:35:23;2.78;;;1.75;;
74632;SDS011;63139;52.018;8.552;2023-06-04T04:37:54;2.72;;;1.90;;
74632;SDS011;63139;52.018;8.552;2023-06-04T04:40:24;2.08;;;1.60;;
74632;SDS011;63139;52.018;8.552;2023-06-04T04:42:54;1.80;;;1.60;;
74632;SDS011;63139;52.018;8.552;2023-06-04T04:45:22;3.55;;;1.80;;
74632;SDS011;63139;52.018;8.552;2023-06-04T04:47:53;3.10;;;1.80;;
74632;SDS011;63139;52.018;8.552;2023-06-04T04:50:21;3.75;;;1.70;;
74632;SDS011;63139;52.018;8.552;2023-06-04T04:52:49;2.03;;;1.60;;
74632;SDS011;63139;52.018;8.552;2023-06-04T04:55:18;3.63;;;1.90;;
74632;SDS011;63139;52.018;8.552;2023-06-04T04:57:47;3.47;;;2.00;;
74632;SDS011;63139;52.018;8.552;2023-06-04T05:00:17;2.25;;;1.80;;
74632;SDS011;63139;52.018;8.552;2023-06-04T05:02:48;2.50;;;1.80;;
74632;SDS011;63139;52.018;8.552;2023-06-04T05:05:17;1.90;;;1.63;;
74632;SDS011;63139;52.018;8.552;2023-06-04T05:07:47;3.13;;;2.13;;
74632;SDS011;63139;52.018;8.552;2023-06-04T05:10:16;2.08;;;1.70;;
74632;SDS011;63139;52.018;8.552;2023-06-04T05:12:50;2.50;;;1.58;;
74632;SDS011;63139;52.018;8.552;2023-06-04T05:15:21;4.68;;;2.10;;
74632;SDS011;63139;52.018;8.552;2023-06-04T05:17:51;4.88;;;1.70;;
74632;SDS011;63139;52.018;8.552;2023-06-04T05:20:21;2.42;;;1.83;;
74632;SDS011;63139;52.018;8.552;2023-06-04T05:22:50;2.60;;;1.90;;
74632;SDS011;63139;52.018;8.552;2023-06-04T05:25:19;2.80;;;1.80;;
74632;SDS011;63139;52.018;8.552;2023-06-04T05:27:47;2.28;;;1.70;;
74632;SDS011;63139;52.018;8.552;2023-06-04T05:30:18;1.92;;;1.75;;
74632;SDS011;63139;52.018;8.552;2023-06-04T05:32:46;2.15;;;1.88;;
74632;SDS011;63139;52.018;8.552;2023-06-04T05:35:19;4.22;;;1.90;;
74632;SDS011;63139;52.018;8.552;2023-06-04T05:37:48;3.80;;;1.60;;
74632;SDS011;63139;52.018;8.552;2023-06-04T05:40:23;1.92;;;1.70;;
74632;SDS011;63139;52.018;8.552;2023-06-04T05:42:51;3.45;;;2.05;;
74632;SDS011;63139;52.018;8.552;2023-06-04T05:45:21;3.85;;;1.95;;
74632;SDS011;63139;52.018;8.552;2023-06-04T05:47:49;4.45;;;1.70;;
74632;SDS011;63139;52.018;8.552;2023-06-04T05:50:17;5.50;;;2.20;;
74632;SDS011;63139;52.018;8.552;2023-06-04T05:52:45;2.22;;;1.70;;
74632;SDS011;63139;52.018;8.552;2023-06-04T05:55:14;3.97;;;1.70;;
74632;SDS011;63139;52.018;8.552;2023-06-04T05:57:43;2.65;;;1.80;;
74632;SDS011;63139;52.018;8.552;2023-06-04T06:00:11;3.28;;;1.80;;
74632;SDS011;63139;52.018;8.552;2023-06-04T06:02:39;2.33;;;1.80;;
74632;SDS011;63139;52.018;8.552;2023-06-04T06:05:19;3.08;;;1.70;;
74632;SDS011;63139;52.018;8.552;2023-06-04T06:07:47;2.67;;;1.70;;
74632;SDS011;63139;52.018;8.552;2023-06-04T06:10:16;3.50;;;2.17;;
74632;SDS011;63139;52.018;8.552;2023-06-04T06:12:44;1.73;;;1.63;;
74632;SDS011;63139;52.018;8.552;2023-06-04T06:15:11;2.25;;;1.80;;
74632;SDS011;63139;52.018;8.552;2023-06-04T06:17:41;3.10;;;1.70;;
74632;SDS011;63139;52.018;8.552;2023-06-04T06:20:10;1.98;;;1.65;;
74632;SDS011;63139;52.018;8.552;2023-06-04T06:22:39;2.03;;;1.50;;
74632;SDS011;63139;52.018;8.552;2023-06-04T06:25:07;2.58;;;1.95;;
74632;SDS011;63139;52.018;8.552;2023-06-04T06:27:42;4.03;;;2.10;;
74632;SDS011;63139;52.018;8.552;2023-06-04T06:30:11;2.28;;;1.70;;
74632;SDS011;63139;52.018;8.552;2023-06-04T06:32:40;5.28;;;1.80;;
74632;SDS011;63139;52.018;8.552;2023-06-04T06:35:08;1.75;;;1.58;;
74632;SDS011;63139;52.018;8.552;2023-06-04T06:37:36;3.47;;;1.70;;
74632;SDS011;63139;52.018;8.552;2023-06-04T06:40:08;2.95;;;1.83;;
74632;SDS011;63139;52.018;8.552;2023-06-04T06:42:36;3.60;;;2.10;;
74632;SDS011;63139;52.018;8.552;2023-06-04T06:45:06;1.88;;;1.75;;
74632;SDS011;63139;52.018;8.552;2023-06-04T06:47:34;2.00;;;1.60;;
74632;SDS011;63139;52.018;8.552;2023-06-04T06:50:02;1.80;;;1.50;;
74632;SDS011;63139;52.018;8.552;2023-06-04T06:52:30;1.90;;;1.55;;
74632;SDS011;63139;52.018;8.552;2023-06-04T06:54:59;2.22;;;1.75;;
74632;SDS011;63139;52.018;8.552;2023-06-04T06:57:27;2.97;;;1.77;;
74632;SDS011;63139;52.018;8.552;2023-06-04T06:59:55;2.15;;;1.77;;
74632;SDS011;63139;52.018;8.552;2023-06-04T07:02:24;1.75;;;1.42;;
74632;SDS011;63139;52.018;8.552;2023-06-04T07:04:52;3.53;;;1.98;;
74632;SDS011;63139;52.018;8.552;2023-06-04T07:07:20;3.63;;;2.00;;
74632;SDS011;63139;52.018;8.552;2023-06-04T07:09:48;2.30;;;1.83;;
74632;SDS011;63139;52.018;8.552;2023-06-04T07:12:16;1.65;;;1.55;;
74632;SDS011;63139;52.018;8.552;2023-06-04T07:14:44;3.30;;;1.73;;
74632;SDS011;63139;52.018;8.552;2023-06-04T07:17:12;3.65;;;1.52;;
74632;SDS011;63139;52.018;8.552;2023-06-04T07:19:41;1.83;;;1.50;;
74632;SDS011;63139;52.018;8.552;2023-06-04T07:22:09;2.20;;;1.63;;
74632;SDS011;63139;52.018;8.552;2023-06-04T07:24:36;1.77;;;1.33;;
74632;SDS011;63139;52.018;8.552;2023-06-04T07:27:09;2.95;;;1.77;;
74632;SDS011;63139;52.018;8.552;2023-06-04T07:29:38;2.28;;;2.00;;
74632;SDS011;63139;52.018;8.552;2023-06-04T07:32:05;3.13;;;1.80;;
74632;SDS011;63139;52.018;8.552;2023-06-04T07:34:33;3.58;;;1.50;;
74632;SDS011;63139;52.018;8.552;2023-06-04T07:37:04;2.42;;;1.50;;
74632;SDS011;63139;52.018;8.552;2023-06-04T07:39:32;5.43;;;1.83;;
74632;SDS011;63139;52.018;8.552;2023-06-04T07:42:00;2.35;;;1.77;;
74632;SDS011;63139;52.018;8.552;2023-06-04T07:44:28;1.60;;;1.45;;
74632;SDS011;63139;52.018;8.552;2023-06-04T07:46:56;3.33;;;1.80;;
74632;SDS011;63139;52.018;8.552;2023-06-04T07:49:23;1.80;;;1.67;;
74632;SDS011;63139;52.018;8.552;2023-06-04T07:51:51;4.40;;;2.03;;
74632;SDS011;63139;52.018;8.552;2023-06-04T07:54:20;3.45;;;1.60;;
74632;SDS011;63139;52.018;8.552;2023-06-04T07:56:48;3.67;;;2.03;;
74632;SDS011;63139;52.018;8.552;2023-06-04T07:59:21;2.95;;;1.83;;
74632;SDS011;63139;52.018;8.552;2023-06-04T08:01:49;3.78;;;1.90;;
74632;SDS011;63139;52.018;8.552;2023-06-04T08:04:18;2.92;;;2.13;;
74632;SDS011;63139;52.018;8.552;2023-06-04T08:06:46;3.22;;;2.10;;
74632;SDS011;63139;52.018;8.552;2023-06-04T08:09:14;3.28;;;2.00;;
74632;SDS011;63139;52.018;8.552;2023-06-04T08:11:43;5.03;;;2.30;;
74632;SDS011;63139;52.018;8.552;2023-06-04T08:14:11;4.30;;;2.10;;
74632;SDS011;63139;52.018;8.552;2023-06-04T08:16:39;2.95;;;2.17;;
74632;SDS011;63139;52.018;8.552;2023-06-04T08:19:07;5.20;;;2.20;;
74632;SDS011;63139;52.018;8.552;2023-06-04T08:21:35;3.28;;;1.83;;
74632;SDS011;63139;52.018;8.552;2023-06-04T08:24:03;3.95;;;2.10;;
74632;SDS011;63139;52.018;8.552;2023-06-04T08:26:31;2.25;;;1.80;;
74632;SDS011;63139;52.018;8.552;2023-06-04T08:29:01;4.28;;;2.40;;
74632;SDS011;63139;52.018;8.552;2023-06-04T08:31:30;3.03;;;2.53;;
74632;SDS011;63139;52.018;8.552;2023-06-04T08:33:58;6.15;;;2.75;;
74632;SDS011;63139;52.018;8.552;2023-06-04T08:36:26;3.10;;;2.45;;
74632;SDS011;63139;52.018;8.552;2023-06-04T08:38:54;3.83;;;2.50;;
74632;SDS011;63139;52.018;8.552;2023-06-04T08:41:23;5.78;;;3.22;;
74632;SDS011;63139;52.018;8.552;2023-06-04T08:43:55;3.13;;;2.25;;
74632;SDS011;63139;52.018;8.552;2023-06-04T08:46:28;4.72;;;2.70;;
74632;SDS011;63139;52.018;8.552;2023-06-04T08:48:59;3.90;;;2.78;;
74632;SDS011;63139;52.018;8.552;2023-06-04T08:51:28;4.93;;;2.80;;
74632;SDS011;63139;52.018;8.552;2023-06-04T08:54:00;4.80;;;2.70;;
74632;SDS011;63139;52.018;8.552;2023-06-04T08:56:28;3.78;;;2.60;;
74632;SDS011;63139;52.018;8.552;2023-06-04T08:58:59;5.88;;;2.63;;
74632;SDS011;63139;52.018;8.552;2023-06-04T09:01:30;3.83;;;2.50;;
74632;SDS011;63139;52.018;8.552;2023-06-04T09:03:58;5.35;;;2.58;;
74632;SDS011;63139;52.018;8.552;2023-06-04T09:06:29;3.13;;;2.65;;
74632;SDS011;63139;52.018;8.552;2023-06-04T09:08:57;4.25;;;2.40;;
74632;SDS011;63139;52.018;8.552;2023-06-04T09:11:27;3.67;;;2.50;;
74632;SDS011;63139;52.018;8.552;2023-06-04T09:14:01;3.28;;;2.08;;
74632;SDS011;63139;52.018;8.552;2023-06-04T09:16:43;5.47;;;2.63;;
74632;SDS011;63139;52.018;8.552;2023-06-04T09:19:11;4.95;;;2.50;;
74632;SDS011;63139;52.018;8.552;2023-06-04T09:21:46;5.32;;;2.47;;
74632;SDS011;63139;52.018;8.552;2023-06-04T09:24:15;4.18;;;2.20;;
74632;SDS011;63139;52.018;8.552;2023-06-04T09:26:42;2.30;;;2.03;;
74632;SDS011;63139;52.018;8.552;2023-06-04T09:29:11;2.85;;;1.77;;
74632;SDS011;63139;52.018;8.552;2023-06-04T09:31:39;3.10;;;2.00;;
74632;SDS011;63139;52.018;8.552;2023-06-04T09:34:08;3.38;;;2.33;;
74632;SDS011;63139;52.018;8.552;2023-06-04T09:36:36;5.00;;;2.20;;
74632;SDS011;63139;52.018;8.552;2023-06-04T09:39:14;3.17;;;2.20;;
74632;SDS011;63139;52.018;8.552;2023-06-04T09:41:42;2.20;;;2.00;;
74632;SDS011;63139;52.018;8.552;2023-06-04T09:44:10;5.20;;;2.20;;
74632;SDS011;63139;52.018;8.552;2023-06-04T09:46:38;7.07;;;2.20;;
74632;SDS011;63139;52.018;8.552;2023-06-04T09:49:06;2.33;;;2.05;;
74632;SDS011;63139;52.018;8.552;2023-06-04T09:51:35;2.97;;;2.40;;
74632;SDS011;63139;52.018;8.552;2023-06-04T09:54:13;4.95;;;2.25;;
74632;SDS011;63139;52.018;8.552;2023-06-04T09:56:41;3.13;;;1.90;;
74632;SDS011;63139;52.018;8.552;2023-06-04T09:59:10;2.92;;;2.13;;
74632;SDS011;63139;52.018;8.552;2023-06-04T10:01:38;5.20;;;2.47;;
74632;SDS011;63139;52.018;8.552;2023-06-04T10:04:08;6.10;;;2.30;;
74632;SDS011;63139;52.018;8.552;2023-06-04T10:06:39;5.60;;;2.30;;
74632;SDS011;63139;52.018;8.552;2023-06-04T10:09:09;2.63;;;2.10;;
74632;SDS011;63139;52.018;8.552;2023-06-04T10:11:37;3.25;;;2.50;;
74632;SDS011;63139;52.018;8.552;2023-06-04T10:14:10;5.28;;;2.70;;
74632;SDS011;63139;52.018;8.552;2023-06-04T10:16:42;8.25;;;2.70;;
74632;SDS011;63139;52.018;8.552;2023-06-04T10:19:12;6.10;;;2.40;;
74632;SDS011;63139;52.018;8.552;2023-06-04T10:21:44;3.72;;;2.30;;
74632;SDS011;63139;52.018;8.552;2023-06-04T10:24:12;2.97;;;2.10;;
74632;SDS011;63139;52.018;8.552;2023-06-04T10:26:42;3.90;;;2.25;;
74632;SDS011;63139;52.018;8.552;2023-06-04T10:29:10;3.00;;;2.38;;
74632;SDS011;63139;52.018;8.552;2023-06-04T10:31:41;4.15;;;2.42;;
74632;SDS011;63139;52.018;8.552;2023-06-04T10:34:11;4.47;;;2.40;;
74632;SDS011;63139;52.018;8.552;2023-06-04T10:36:44;7.50;;;3.70;;
74632;SDS011;63139;52.018;8.552;2023-06-04T10:39:12;8.45;;;5.18;;
74632;SDS011;63139;52.018;8.552;2023-06-04T10:41:40;6.70;;;3.75;;
74632;SDS011;63139;52.018;8.552;2023-06-04T10:44:08;2.72;;;2.08;;
74632;SDS011;63139;52.018;8.552;2023-06-04T10:46:39;8.02;;;2.35;;
74632;SDS011;63139;52.018;8.552;2023-06-04T10:49:09;4.10;;;2.28;;
74632;SDS011;63139;52.018;8.552;2023-06-04T10:51:38;3.15;;;2.35;;
74632;SDS011;63139;52.018;8.552;2023-06-04T10:54:07;4.00;;;3.05;;
74632;SDS011;63139;52.018;8.552;2023-06-04T10:56:35;3.25;;;2.60;;
74632;SDS011;63139;52.018;8.552;2023-06-04T10:59:12;4.28;;;2.38;;
74632;SDS011;63139;52.018;8.552;2023-06-04T11:01:40;3.90;;;3.00;;
74632;SDS011;63139;52.018;8.552;2023-06-04T11:04:17;3.30;;;2.30;;
74632;SDS011;63139;52.018;8.552;2023-06-04T11:06:46;5.78;;;3.25;;
74632;SDS011;63139;52.018;8.552;2023-06-04T11:09:16;5.05;;;2.70;;
74632;SDS011;63139;52.018;8.552;2023-06-04T11:11:55;3.25;;;2.17;;
74632;SDS011;63139;52.018;8.552;2023-06-04T11:14:23;4.65;;;2.67;;
74632;SDS011;63139;52.018;8.552;2023-06-04T11:16:52;2.88;;;2.28;;
74632;SDS011;63139;52.018;8.552;2023-06-04T11:19:19;3.65;;;2.10;;
74632;SDS011;63139;52.018;8.552;2023-06-04T11:21:47;6.57;;;2.88;;
74632;SDS011;63139;52.018;8.552;2023-06-04T11:24:17;9.20;;;3.65;;
74632;SDS011;63139;52.018;8.552;2023-06-04T11:26:45;4.82;;;2.88;;
74632;SDS011;63139;52.018;8.552;2023-06-04T11:29:34;2.97;;;1.90;;
74632;SDS011;63139;52.018;8.552;2023-06-04T11:32:02;2.70;;;1.90;;
74632;SDS011;63139;52.018;8.552;2023-06-04T11:34:30;3.92;;;2.00;;
74632;SDS011;63139;52.018;8.552;2023-06-04T11:37:07;2.45;;;1.90;;
74632;SDS011;63139;52.018;8.552;2023-06-04T11:39:36;3.72;;;1.90;;
74632;SDS011;63139;52.018;8.552;2023-06-04T11:42:06;4.15;;;1.48;;
74632;SDS011;63139;52.018;8.552;2023-06-04T11:44:34;3.95;;;2.10;;
74632;SDS011;63139;52.018;8.552;2023-06-04T11:47:04;2.55;;;1.90;;
74632;SDS011;63139;52.018;8.552;2023-06-04T11:49:33;4.43;;;1.83;;
74632;SDS011;63139;52.018;8.552;2023-06-04T11:52:03;3.50;;;1.88;;
74632;SDS011;63139;52.018;8.552;2023-06-04T11:54:31;5.47;;;1.90;;
74632;SDS011;63139;52.018;8.552;2023-06-04T11:57:04;2.63;;;1.80;;
74632;SDS011;63139;52.018;8.552;2023-06-04T11:59:33;4.28;;;1.95;;
74632;SDS011;63139;52.018;8.552;2023-06-04T12:02:02;1.92;;;1.73;;
74632;SDS011;63139;52.018;8.552;2023-06-04T12:04:30;3.63;;;1.70;;
74632;SDS011;63139;52.018;8.552;2023-06-04T12:06:59;3.30;;;1.80;;
74632;SDS011;63139;52.018;8.552;2023-06-04T12:09:28;2.80;;;1.80;;
74632;SDS011;63139;52.018;8.552;2023-06-04T12:11:59;1.67;;;1.58;;
74632;SDS011;63139;52.018;8.552;2023-06-04T12:14:29;3.00;;;1.80;;
74632;SDS011;63139;52.018;8.552;2023-06-04T12:16:57;4.72;;;1.85;;
74632;SDS011;63139;52.018;8.552;2023-06-04T12:19:26;1.65;;;1.55;;
74632;SDS011;63139;52.018;8.552;2023-06-04T12:22:00;1.77;;;1.50;;
74632;SDS011;63139;52.018;8.552;2023-06-04T12:24:29;1.92;;;1.60;;
74632;SDS011;63139;52.018;8.552;2023-06-04T12:27:02;2.97;;;1.50;;
74632;SDS011;63139;52.018;8.552;2023-06-04T12:29:32;2.28;;;1.75;;
74632;SDS011;63139;52.018;8.552;2023-06-04T12:32:03;4.70;;;2.22;;
74632;SDS011;63139;52.018;8.552;2023-06-04T12:34:37;2.15;;;1.67;;
74632;SDS011;63139;52.018;8.552;2023-06-04T12:37:05;3.20;;;1.83;;
74632;SDS011;63139;52.018;8.552;2023-06-04T12:39:34;7.68;;;2.25;;
74632;SDS011;63139;52.018;8.552;2023-06-04T12:42:03;3.25;;;1.60;;
74632;SDS011;63139;52.018;8.552;2023-06-04T12:44:34;3.00;;;1.80;;
74632;SDS011;63139;52.018;8.552;2023-06-04T12:47:03;5.35;;;1.80;;
74632;SDS011;63139;52.018;8.552;2023-06-04T12:49:31;1.50;;;1.40;;
74632;SDS011;63139;52.018;8.552;2023-06-04T12:51:59;1.65;;;1.50;;
74632;SDS011;63139;52.018;8.552;2023-06-04T12:54:27;2.22;;;1.70;;
74632;SDS011;63139;52.018;8.552;2023-06-04T12:56:55;2.33;;;1.70;;
74632;SDS011;63139;52.018;8.552;2023-06-04T12:59:23;2.45;;;1.63;;
74632;SDS011;63139;52.018;8.552;2023-06-04T13:01:53;1.50;;;1.40;;
74632;SDS011;63139;52.018;8.552;2023-06-04T13:04:21;5.20;;;1.75;;
74632;SDS011;63139;52.018;8.552;2023-06-04T13:06:51;2.60;;;1.80;;
74632;SDS011;63139;52.018;8.552;2023-06-04T13:09:21;1.63;;;1.52;;
74632;SDS011;63139;52.018;8.552;2023-06-04T13:11:50;2.10;;;1.48;;
74632;SDS011;63139;52.018;8.552;2023-06-04T13:14:18;5.32;;;1.80;;
74632;SDS011;63139;52.018;8.552;2023-06-04T13:16:46;4.22;;;1.70;;
74632;SDS011;63139;52.018;8.552;2023-06-04T13:19:16;3.33;;;1.45;;
74632;SDS011;63139;52.018;8.552;2023-06-04T13:21:45;3.67;;;1.50;;
74632;SDS011;63139;52.018;8.552;2023-06-04T13:24:13;2.55;;;1.70;;
74632;SDS011;63139;52.018;8.552;2023-06-04T13:26:42;1.95;;;1.50;;
74632;SDS011;63139;52.018;8.552;2023-06-04T13:29:09;1.60;;;1.38;;
74632;SDS011;63139;52.018;8.552;2023-06-04T13:31:38;2.30;;;1.58;;
74632;SDS011;63139;52.018;8.552;2023-06-04T13:34:07;3.13;;;1.60;;
74632;SDS011;63139;52.018;8.552;2023-06-04T13:36:54;3.25;;;1.60;;
74632;SDS011;63139;52.018;8.552;2023-06-04T13:39:22;2.47;;;1.50;;
74632;SDS011;63139;52.018;8.552;2023-06-04T13:41:50;2.03;;;1.50;;
74632;SDS011;63139;52.018;8.552;2023-06-04T13:44:17;2.05;;;1.50;;
74632;SDS011;63139;52.018;8.552;2023-06-04T13:46:46;2.50;;;1.30;;
74632;SDS011;63139;52.018;8.552;2023-06-04T13:49:14;3.70;;;1.65;;
74632;SDS011;63139;52.018;8.552;2023-06-04T13:51:42;4.13;;;1.33;;
74632;SDS011;63139;52.018;8.552;2023-06-04T13:54:11;1.60;;;1.50;;
74632;SDS011;63139;52.018;8.552;2023-06-04T13:56:39;2.17;;;1.50;;
74632;SDS011;63139;52.018;8.552;2023-06-04T13:59:07;1.38;;;1.27;;
74632;SDS011;63139;52.018;8.552;2023-06-04T14:01:34;3.08;;;1.33;;
74632;SDS011;63139;52.018;8.552;2023-06-04T14:04:02;2.75;;;1.50;;
74632;SDS011;63139;52.018;8.552;2023-06-04T14:06:32;2.33;;;1.40;;
74632;SDS011;63139;52.018;8.552;2023-06-04T14:09:02;2.25;;;1.33;;
74632;SDS011;63139;52.018;8.552;2023-06-04T14:11:31;1.60;;;1.20;;
74632;SDS011;63139;52.018;8.552;2023-06-04T14:14:00;3.55;;;1.58;;
74632;SDS011;63139;52.018;8.552;2023-06-04T14:16:28;1.38;;;1.23;;
74632;SDS011;63139;52.018;8.552;2023-06-04T14:18:56;1.80;;;1.13;;
74632;SDS011;63139;52.018;8.552;2023-06-04T14:21:23;4.32;;;1.42;;
74632;SDS011;63139;52.018;8.552;2023-06-04T14:23:51;1.60;;;1.20;;
74632;SDS011;63139;52.018;8.552;2023-06-04T14:26:19;3.20;;;1.40;;
74632;SDS011;63139;52.018;8.552;2023-06-04T14:28:48;2.20;;;1.52;;
74632;SDS011;63139;52.018;8.552;2023-06-04T14:31:16;1.83;;;1.33;;
74632;SDS011;63139;52.018;8.552;2023-06-04T14:33:44;4.82;;;1.55;;
74632;SDS011;63139;52.018;8.552;2023-06-04T14:36:11;2.90;;;1.27;;
74632;SDS011;63139;52.018;8.552;2023-06-04T14:38:39;2.33;;;1.50;;
74632;SDS011;63139;52.018;8.552;2023-06-04T14:41:07;2.08;;;1.60;;
74632;SDS011;63139;52.018;8.552;2023-06-04T14:43:35;3.40;;;1.60;;
74632;SDS011;63139;52.018;8.552;2023-06-04T14:46:04;2.25;;;1.50;;
74632;SDS011;63139;52.018;8.552;2023-06-04T14:48:32;6.70;;;1.65;;
74632;SDS011;63139;52.018;8.552;2023-06-04T14:51:00;5.22;;;1.65;;
74632;SDS011;63139;52.018;8.552;2023-06-04T14:53:28;3.00;;;1.40;;
74632;SDS011;63139;52.018;8.552;2023-06-04T14:55:56;4.00;;;1.92;;
74632;SDS011;63139;52.018;8.552;2023-06-04T14:58:23;2.25;;;1.50;;
74632;SDS011;63139;52.018;8.552;2023-06-04T15:00:51;1.63;;;1.52;;
74632;SDS011;63139;52.018;8.552;2023-06-04T15:03:20;2.42;;;1.30;;